createdAt,value
2023-02-04T00:02:39.148Z,4.57
2023-02-04T00:07:41.424Z,3.22
2023-02-04T00:12:42.923Z,3.22
2023-02-04T00:17:44.254Z,3.40
2023-02-04T00:22:45.805Z,3.15
2023-02-04T00:27:47.139Z,3.22
2023-02-04T00:32:48.653Z,3.10
2023-02-04T00:37:50.630Z,3.40
2023-02-04T00:42:52.594Z,3.22
2023-02-04T00:47:54.028Z,2.80
2023-02-04T00:52:55.466Z,3.28
2023-02-04T00:57:57.358Z,3.15
2023-02-04T01:02:58.825Z,2.47
2023-02-04T01:08:00.289Z,2.58
2023-02-04T01:13:01.725Z,3.33
2023-02-04T01:18:03.523Z,2.45
2023-02-04T01:23:04.950Z,2.55
2023-02-04T01:28:06.422Z,3.15
2023-02-04T01:33:07.928Z,2.35
2023-02-04T01:38:09.303Z,2.45
2023-02-04T01:43:11.824Z,3.15
2023-02-04T01:48:20.056Z,2.20
2023-02-04T01:53:24.732Z,3.00
2023-02-04T01:58:26.533Z,2.83
2023-02-04T02:03:27.932Z,2.63
2023-02-04T02:08:29.299Z,2.95
2023-02-04T02:13:31.021Z,2.70
2023-02-04T02:18:32.480Z,2.53
2023-02-04T02:23:54.212Z,3.53
2023-02-04T02:28:55.783Z,2.35
2023-02-04T02:33:57.084Z,3.30
2023-02-04T02:39:00.038Z,3.10
2023-02-04T02:44:03.108Z,2.45
2023-02-04T02:49:04.533Z,3.40
2023-02-04T02:54:05.863Z,2.15
2023-02-04T02:59:14.598Z,2.38
2023-02-04T03:04:18.546Z,2.67
2023-02-04T03:09:20.299Z,3.93
2023-02-04T03:14:24.222Z,3.13
2023-02-04T03:19:26.189Z,2.47
2023-02-04T03:24:27.546Z,2.90
2023-02-04T03:29:29.852Z,4.05
2023-02-04T03:34:31.344Z,3.10
2023-02-04T03:39:32.684Z,3.58
2023-02-04T03:44:34.182Z,3.03
2023-02-04T03:49:36.074Z,2.88
2023-02-04T03:54:37.525Z,3.15
2023-02-04T03:59:39.062Z,3.03
2023-02-04T04:04:40.371Z,2.83
2023-02-04T04:09:41.748Z,4.07
2023-02-04T04:14:43.332Z,3.72
2023-02-04T04:19:44.976Z,3.13
2023-02-04T04:24:46.777Z,3.05
2023-02-04T04:29:48.173Z,3.10
2023-02-04T04:34:49.514Z,3.72
2023-02-04T04:39:50.882Z,3.30
2023-02-04T04:44:52.190Z,3.45
2023-02-04T04:49:53.528Z,3.20
2023-02-04T04:54:54.925Z,3.10
2023-02-04T04:59:56.289Z,3.75
2023-02-04T05:04:57.787Z,3.70
2023-02-04T05:09:59.203Z,3.63
2023-02-04T05:15:00.620Z,4.82
2023-02-04T05:20:01.957Z,3.63
2023-02-04T05:25:03.682Z,4.05
2023-02-04T05:30:05.527Z,3.53
2023-02-04T05:35:07.889Z,3.47
2023-02-04T05:40:09.803Z,4.32
2023-02-04T05:45:15.206Z,3.90
2023-02-04T05:50:16.788Z,3.58
2023-02-04T05:55:18.623Z,4.15
2023-02-04T06:00:20.334Z,3.67
2023-02-04T06:05:23.380Z,3.97
2023-02-04T06:10:24.711Z,3.85
2023-02-04T06:15:26.074Z,3.70
2023-02-04T06:20:27.495Z,3.85
2023-02-04T06:25:28.875Z,4.70
2023-02-04T06:30:30.450Z,4.22
2023-02-04T06:35:32.152Z,4.10
2023-02-04T06:40:33.865Z,4.13
2023-02-04T06:45:36.077Z,4.07
2023-02-04T06:50:37.842Z,4.57
2023-02-04T06:55:39.619Z,4.15
2023-02-04T07:00:41.239Z,4.10
2023-02-04T07:05:43.316Z,3.72
2023-02-04T07:10:44.724Z,3.92
2023-02-04T07:15:47.618Z,3.63
2023-02-04T07:20:49.104Z,5.03
2023-02-04T07:25:53.376Z,3.58
2023-02-04T07:30:55.499Z,4.28
2023-02-04T07:35:57.270Z,3.78
2023-02-04T07:40:58.597Z,4.57
2023-02-04T07:46:00.146Z,4.40
2023-02-04T07:51:01.676Z,4.45
2023-02-04T07:56:03.258Z,6.45
2023-02-04T08:01:04.941Z,4.93
2023-02-04T08:06:06.498Z,5.88
2023-02-04T08:11:07.947Z,4.90
2023-02-04T08:16:11.605Z,3.97
2023-02-04T08:21:13.217Z,5.33
2023-02-04T08:26:14.520Z,4.78
2023-02-04T08:31:16.003Z,5.40
2023-02-04T08:36:17.375Z,5.75
2023-02-04T08:41:18.719Z,4.20
2023-02-04T08:46:20.104Z,4.72
2023-02-04T08:51:21.586Z,4.28
2023-02-04T08:56:22.944Z,3.97
2023-02-04T09:01:24.409Z,4.57
2023-02-04T09:06:25.824Z,4.85
2023-02-04T09:11:27.500Z,4.78
2023-02-04T09:16:29.312Z,3.47
2023-02-04T09:21:31.794Z,3.75
2023-02-04T09:26:33.435Z,3.35
2023-02-04T09:31:34.943Z,4.25
2023-02-04T09:36:38.486Z,3.45
2023-02-04T09:41:41.069Z,3.28
2023-02-04T09:46:49.324Z,3.88
2023-02-04T09:51:51.768Z,3.72
2023-02-04T09:56:53.165Z,3.00
2023-02-04T10:02:01.759Z,3.65
2023-02-04T10:07:03.839Z,3.47
2023-02-04T10:12:06.635Z,4.05
2023-02-04T10:17:09.284Z,3.17
2023-02-04T10:22:21.795Z,3.90
2023-02-04T10:27:23.217Z,3.10
2023-02-04T10:32:34.005Z,2.22
2023-02-04T10:37:35.373Z,2.92
2023-02-04T10:42:36.764Z,2.13
2023-02-04T10:47:38.139Z,1.90
2023-02-04T10:52:41.585Z,2.30
2023-02-04T10:57:45.058Z,3.10
2023-02-04T11:02:56.909Z,2.37
2023-02-04T11:07:58.626Z,2.72
2023-02-04T11:13:01.936Z,2.03
2023-02-04T11:18:06.038Z,2.53
2023-02-04T11:23:26.580Z,2.97
2023-02-04T11:28:27.931Z,1.95
2023-02-04T11:33:41.439Z,1.85
2023-02-04T11:38:49.066Z,2.03
2023-02-04T11:43:53.362Z,2.60
2023-02-04T11:48:56.475Z,2.20
2023-02-04T11:53:57.902Z,2.20
2023-02-04T11:58:59.283Z,2.38
2023-02-04T12:04:02.501Z,1.70
2023-02-04T12:09:22.186Z,2.00
2023-02-04T12:14:36.815Z,2.67
2023-02-04T12:19:38.430Z,2.55
2023-02-04T12:24:39.890Z,2.38
2023-02-04T12:29:41.631Z,2.25
2023-02-04T12:34:42.981Z,2.22
2023-02-04T12:39:44.329Z,2.03
2023-02-04T12:44:45.680Z,2.10
2023-02-04T12:49:47.078Z,2.00
2023-02-04T12:54:48.391Z,2.45
2023-02-04T12:59:49.933Z,2.10
2023-02-04T13:04:52.319Z,2.35
2023-02-04T13:09:53.724Z,2.60
2023-02-04T13:14:55.040Z,3.05
2023-02-04T13:19:56.505Z,2.78
2023-02-04T13:24:58.152Z,2.22
2023-02-04T13:29:59.444Z,2.00
2023-02-04T13:35:00.790Z,2.25
2023-02-04T13:40:02.266Z,1.98
2023-02-04T13:45:05.065Z,2.57
2023-02-04T13:50:07.405Z,2.13
2023-02-04T13:55:08.881Z,2.20
2023-02-04T14:00:11.171Z,3.17
2023-02-04T14:05:12.633Z,2.40
2023-02-04T14:10:14.095Z,1.98
2023-02-04T14:15:15.527Z,2.17
2023-02-04T14:20:17.174Z,3.37
2023-02-04T14:25:18.782Z,2.10
2023-02-04T14:30:25.759Z,2.75
2023-02-04T14:35:27.142Z,2.33
2023-02-04T14:40:28.495Z,2.08
2023-02-04T14:45:29.791Z,2.30
2023-02-04T14:50:31.813Z,1.80
2023-02-04T14:55:33.386Z,1.92
2023-02-04T15:00:35.050Z,2.00
2023-02-04T15:05:36.924Z,2.35
2023-02-04T15:10:38.573Z,2.60
2023-02-04T15:15:40.194Z,1.98
2023-02-04T15:20:41.551Z,2.05
2023-02-04T15:25:42.876Z,2.38
2023-02-04T15:30:44.290Z,2.10
2023-02-04T15:35:45.677Z,2.55
2023-02-04T15:40:47.626Z,2.53
2023-02-04T15:45:49.060Z,1.90
2023-02-04T15:50:51.194Z,2.45
2023-02-04T15:55:52.468Z,2.75
2023-02-04T16:00:53.858Z,2.42
2023-02-04T16:05:55.566Z,2.25
2023-02-04T16:10:57.083Z,2.35
2023-02-04T16:15:58.394Z,2.53
2023-02-04T16:20:59.932Z,2.63
2023-02-04T16:26:01.322Z,2.22
2023-02-04T16:31:02.796Z,2.42
2023-02-04T16:36:07.938Z,8.10
2023-02-04T16:41:10.116Z,2.30
2023-02-04T16:46:12.449Z,2.28
2023-02-04T16:51:13.959Z,12.68
2023-02-04T16:56:15.338Z,3.83
2023-02-04T17:01:19.360Z,3.00
2023-02-04T17:06:20.775Z,2.58
2023-02-04T17:11:29.160Z,3.85
2023-02-04T17:16:31.654Z,3.28
2023-02-04T17:21:33.379Z,3.50
2023-02-04T17:26:39.698Z,3.88
2023-02-04T17:31:43.149Z,3.50
2023-02-04T17:36:44.559Z,2.92
2023-02-04T17:41:46.325Z,3.45
2023-02-04T17:46:47.911Z,3.55
2023-02-04T17:51:49.847Z,5.45
2023-02-04T17:56:51.646Z,3.33
2023-02-04T18:01:53.534Z,4.03
2023-02-04T18:06:54.998Z,2.97
2023-02-04T18:11:56.423Z,3.60
2023-02-04T18:16:59.524Z,3.58
2023-02-04T18:22:00.934Z,4.00
2023-02-04T18:27:14.379Z,3.40
2023-02-04T18:32:40.857Z,2.92
2023-02-04T18:37:46.894Z,2.90
2023-02-04T18:42:48.318Z,4.32
2023-02-04T18:47:50.640Z,3.72
2023-02-04T18:52:52.458Z,3.13
2023-02-04T18:57:53.780Z,4.03
2023-02-04T19:02:58.787Z,3.65
2023-02-04T19:08:06.195Z,4.15
2023-02-04T19:13:42.273Z,4.50
2023-02-04T19:18:43.860Z,4.07
2023-02-04T19:23:45.660Z,4.80
2023-02-04T19:28:49.249Z,6.00
2023-02-04T19:33:51.118Z,4.32
2023-02-04T19:38:58.947Z,3.85
2023-02-04T19:44:12.798Z,4.03
2023-02-04T19:49:24.152Z,3.90
2023-02-04T19:54:37.202Z,3.85
2023-02-04T19:59:38.560Z,4.53
2023-02-04T20:04:44.985Z,5.43
2023-02-04T20:09:46.782Z,5.10
2023-02-04T20:14:49.633Z,4.50
2023-02-04T20:19:51.558Z,5.03
2023-02-04T20:24:58.927Z,4.63
2023-02-04T20:30:11.652Z,5.63
2023-02-04T20:35:13.353Z,5.10
2023-02-04T20:40:26.154Z,5.43
2023-02-04T20:45:47.636Z,5.60
2023-02-04T20:50:53.695Z,5.75
2023-02-04T20:56:03.840Z,5.13
2023-02-04T21:01:34.264Z,4.68
2023-02-04T21:06:36.351Z,4.53
2023-02-04T21:11:37.754Z,4.63
2023-02-04T21:16:39.040Z,4.55
2023-02-04T21:21:40.373Z,5.22
2023-02-04T21:26:42.137Z,5.60
2023-02-04T21:31:45.002Z,5.97
2023-02-04T21:36:46.734Z,6.18
2023-02-04T21:42:08.047Z,6.55
2023-02-04T21:47:09.488Z,5.72
2023-02-04T21:52:10.828Z,6.38
2023-02-04T21:57:12.175Z,7.95
2023-02-04T22:02:13.931Z,6.45
2023-02-04T22:07:15.625Z,7.15
2023-02-04T22:12:17.685Z,7.72
2023-02-04T22:17:19.026Z,6.00
2023-02-04T22:22:21.616Z,6.05
2023-02-04T22:27:23.062Z,7.13
2023-02-04T22:32:24.420Z,6.35
2023-02-04T22:37:26.225Z,7.05
2023-02-04T22:42:27.545Z,6.15
2023-02-04T22:47:29.072Z,6.88
2023-02-04T22:52:30.586Z,6.05
2023-02-04T22:57:31.971Z,6.07
2023-02-04T23:02:33.365Z,5.80
2023-02-04T23:07:34.979Z,5.40
2023-02-04T23:12:36.355Z,6.13
2023-02-04T23:17:37.734Z,6.03
2023-02-04T23:22:39.866Z,7.00
2023-02-04T23:27:41.344Z,6.15
2023-02-04T23:32:43.001Z,6.53
2023-02-04T23:37:45.077Z,6.78
2023-02-04T23:42:46.817Z,7.32
2023-02-04T23:47:48.145Z,6.03
2023-02-04T23:52:49.483Z,6.47
2023-02-04T23:57:50.813Z,6.55
